createdAt,value
2018-03-25T00:01:22.855Z,2.90
2018-03-25T00:03:51.417Z,2.90
2018-03-25T00:06:20.719Z,2.80
2018-03-25T00:08:49.087Z,2.80
2018-03-25T00:11:18.111Z,2.80
2018-03-25T00:13:46.589Z,2.80
2018-03-25T00:16:15.095Z,2.80
2018-03-25T00:18:44.188Z,2.80
2018-03-25T00:21:14.555Z,2.70
2018-03-25T00:23:43.719Z,2.70
2018-03-25T00:26:12.231Z,2.70
2018-03-25T00:28:40.682Z,2.70
2018-03-25T00:31:09.762Z,2.70
2018-03-25T00:33:38.086Z,2.60
2018-03-25T00:36:06.911Z,2.60
2018-03-25T00:38:35.356Z,2.60
2018-03-25T00:41:03.612Z,2.50
2018-03-25T00:43:33.724Z,2.50
2018-03-25T00:46:02.097Z,2.50
2018-03-25T00:48:30.488Z,2.40
2018-03-25T00:50:59.017Z,2.40
2018-03-25T00:53:28.806Z,2.40
2018-03-25T00:55:59.372Z,2.30
2018-03-25T00:58:27.688Z,2.30
2018-03-25T01:00:56.504Z,2.30
2018-03-25T01:03:24.820Z,2.30
2018-03-25T01:05:53.151Z,2.30
2018-03-25T01:08:21.480Z,2.30
2018-03-25T01:10:49.764Z,2.20
2018-03-25T01:13:18.042Z,2.20
2018-03-25T01:15:58.164Z,2.30
2018-03-25T01:18:26.442Z,2.20
2018-03-25T01:20:54.706Z,2.20
2018-03-25T01:23:23.038Z,2.20
2018-03-25T01:25:51.294Z,2.20
2018-03-25T01:28:20.058Z,2.20
2018-03-25T01:30:48.347Z,2.20
2018-03-25T01:33:16.615Z,2.20
2018-03-25T01:35:44.940Z,2.20
2018-03-25T01:38:13.211Z,2.20
2018-03-25T01:40:41.522Z,2.20
2018-03-25T01:43:09.790Z,2.20
2018-03-25T01:45:38.467Z,2.20
2018-03-25T01:48:06.776Z,2.20
2018-03-25T01:50:35.807Z,2.20
2018-03-25T01:53:04.595Z,2.10
2018-03-25T01:55:32.921Z,2.10
2018-03-25T01:58:01.177Z,2.10
2018-03-25T02:00:29.509Z,2.10
2018-03-25T02:02:57.793Z,2.10
2018-03-25T02:05:26.109Z,2.10
2018-03-25T02:07:54.400Z,2.10
2018-03-25T02:10:22.656Z,2.00
2018-03-25T02:12:50.937Z,2.00
2018-03-25T02:15:19.207Z,2.00
2018-03-25T02:17:47.462Z,1.90
2018-03-25T02:20:15.778Z,1.90
2018-03-25T02:22:44.033Z,1.90
2018-03-25T02:25:12.357Z,1.90
2018-03-25T02:27:41.418Z,1.90
2018-03-25T02:30:09.682Z,1.90
2018-03-25T02:32:48.654Z,1.90
2018-03-25T02:35:16.941Z,1.90
2018-03-25T02:37:45.759Z,1.80
2018-03-25T02:40:14.109Z,1.80
2018-03-25T02:42:42.442Z,1.80
2018-03-25T02:45:10.749Z,1.80
2018-03-25T02:47:39.027Z,1.80
2018-03-25T02:50:07.334Z,1.80
2018-03-25T02:52:36.353Z,1.80
2018-03-25T02:55:05.340Z,1.80
2018-03-25T02:57:33.642Z,1.80
2018-03-25T03:00:01.919Z,1.70
2018-03-25T03:02:30.293Z,1.70
2018-03-25T03:04:58.531Z,1.70
2018-03-25T03:07:27.229Z,1.70
2018-03-25T03:09:56.694Z,1.60
2018-03-25T03:12:25.111Z,1.60
2018-03-25T03:14:53.477Z,1.60
2018-03-25T03:17:21.810Z,1.60
2018-03-25T03:19:50.143Z,1.60
2018-03-25T03:22:19.210Z,1.60
2018-03-25T03:24:47.478Z,1.60
2018-03-25T03:27:15.790Z,1.70
2018-03-25T03:29:44.048Z,1.70
2018-03-25T03:32:12.332Z,1.70
2018-03-25T03:34:40.628Z,1.70
2018-03-25T03:37:08.954Z,1.70
2018-03-25T03:39:37.378Z,1.70
2018-03-25T03:42:05.694Z,1.70
2018-03-25T03:44:34.937Z,1.70
2018-03-25T03:47:03.255Z,1.70
2018-03-25T03:49:31.678Z,1.70
2018-03-25T03:51:59.986Z,1.70
2018-03-25T03:54:28.278Z,1.70
2018-03-25T03:56:58.358Z,1.70
2018-03-25T03:59:26.683Z,1.70
2018-03-25T04:01:55.742Z,1.70
2018-03-25T04:04:24.144Z,1.70
2018-03-25T04:06:52.424Z,1.70
2018-03-25T04:09:20.820Z,1.70
2018-03-25T04:11:50.693Z,1.70
2018-03-25T04:14:18.967Z,1.70
2018-03-25T04:16:47.270Z,1.70
2018-03-25T04:19:15.529Z,1.70
2018-03-25T04:21:43.807Z,1.70
2018-03-25T04:24:12.102Z,1.70
2018-03-25T04:26:40.367Z,1.70
2018-03-25T04:29:10.336Z,1.70
2018-03-25T04:31:38.589Z,1.70
2018-03-25T04:34:07.644Z,1.80
2018-03-25T04:36:35.969Z,1.80
2018-03-25T04:39:04.289Z,1.80
2018-03-25T04:41:32.598Z,1.80
2018-03-25T04:44:02.128Z,1.80
2018-03-25T04:46:30.441Z,1.90
2018-03-25T04:48:58.821Z,1.90
2018-03-25T04:51:27.111Z,1.90
2018-03-25T04:53:55.412Z,2.00
2018-03-25T04:56:23.707Z,2.00
2018-03-25T04:58:51.969Z,2.10
2018-03-25T05:01:20.269Z,2.10
2018-03-25T05:03:48.548Z,2.20
2018-03-25T05:06:16.934Z,2.20
2018-03-25T05:08:45.317Z,2.20
2018-03-25T05:11:13.568Z,2.30
2018-03-25T05:13:41.897Z,2.30
2018-03-25T05:16:10.171Z,2.40
2018-03-25T05:18:39.276Z,2.50
2018-03-25T05:21:08.334Z,2.70
2018-03-25T05:23:37.410Z,2.80
2018-03-25T05:26:05.698Z,2.70
2018-03-25T05:28:33.975Z,2.80
2018-03-25T05:31:02.253Z,2.90
2018-03-25T05:33:31.258Z,2.90
2018-03-25T05:35:59.744Z,3.00
2018-03-25T05:38:28.127Z,3.00
2018-03-25T05:40:56.409Z,3.10
2018-03-25T05:43:24.684Z,3.10
2018-03-25T05:45:53.746Z,3.20
2018-03-25T05:48:22.219Z,3.20
2018-03-25T05:50:50.582Z,3.30
2018-03-25T05:53:18.849Z,3.30
2018-03-25T05:55:47.128Z,3.30
2018-03-25T05:58:15.608Z,3.40
2018-03-25T06:00:43.871Z,3.50
2018-03-25T06:03:12.207Z,3.50
2018-03-25T06:05:40.463Z,3.50
2018-03-25T06:08:08.746Z,3.60
2018-03-25T06:10:37.058Z,3.60
2018-03-25T06:13:05.341Z,3.70
2018-03-25T06:15:33.645Z,3.70
2018-03-25T06:18:01.955Z,3.80
2018-03-25T06:20:30.279Z,3.80
2018-03-25T06:22:59.401Z,3.90
2018-03-25T06:25:27.680Z,3.90
2018-03-25T06:27:56.807Z,4.10
2018-03-25T06:30:25.083Z,4.10
2018-03-25T06:32:53.401Z,4.10
2018-03-25T06:35:21.694Z,4.20
2018-03-25T06:37:50.803Z,4.30
2018-03-25T06:40:19.907Z,4.40
2018-03-25T06:42:48.242Z,4.40
2018-03-25T06:45:16.522Z,4.40
2018-03-25T06:47:44.819Z,4.50
2018-03-25T06:50:13.095Z,4.50
2018-03-25T06:52:42.174Z,4.70
2018-03-25T06:55:10.483Z,4.70
2018-03-25T06:57:39.551Z,4.80
2018-03-25T07:00:07.862Z,4.80
2018-03-25T07:02:36.172Z,5.10
2018-03-25T07:05:04.506Z,5.00
2018-03-25T07:07:33.561Z,5.10
2018-03-25T07:10:01.838Z,5.10
2018-03-25T07:12:30.196Z,5.20
2018-03-25T07:14:58.479Z,5.20
2018-03-25T07:17:26.807Z,5.30
2018-03-25T07:19:55.083Z,5.40
2018-03-25T07:22:24.171Z,5.50
2018-03-25T07:24:52.506Z,5.40
2018-03-25T07:27:20.785Z,5.50
2018-03-25T07:29:49.868Z,5.70
2018-03-25T07:32:18.919Z,5.80
2018-03-25T07:34:47.195Z,5.70
2018-03-25T07:37:15.513Z,5.80
2018-03-25T07:39:43.774Z,5.90
2018-03-25T07:42:12.902Z,6.00
2018-03-25T07:44:41.178Z,6.00
2018-03-25T07:47:09.458Z,6.10
2018-03-25T07:49:37.751Z,6.10
2018-03-25T07:52:06.027Z,6.20
2018-03-25T07:54:34.358Z,6.20
2018-03-25T07:57:03.458Z,6.30
2018-03-25T07:59:32.506Z,6.30
2018-03-25T08:02:00.822Z,6.30
2018-03-25T08:04:29.097Z,6.40
2018-03-25T08:06:57.476Z,6.40
2018-03-25T08:09:25.775Z,6.50
2018-03-25T08:11:54.828Z,6.70
2018-03-25T08:14:23.150Z,6.60
2018-03-25T08:16:52.182Z,6.80
2018-03-25T08:19:20.494Z,6.80
2018-03-25T08:21:48.835Z,6.90
2018-03-25T08:24:17.826Z,6.90
2018-03-25T08:26:46.151Z,6.90
2018-03-25T08:29:14.854Z,7.00
2018-03-25T08:31:43.915Z,7.10
2018-03-25T08:34:12.222Z,7.10
2018-03-25T08:36:40.496Z,7.20
2018-03-25T08:39:08.836Z,7.30
2018-03-25T08:41:37.095Z,7.30
2018-03-25T08:44:06.153Z,7.50
2018-03-25T08:46:34.724Z,7.50
2018-03-25T08:49:02.952Z,7.60
2018-03-25T08:51:31.232Z,7.70
2018-03-25T08:53:59.529Z,7.80
2018-03-25T08:56:27.806Z,7.80
2018-03-25T08:58:56.145Z,7.90
2018-03-25T09:01:25.175Z,8.00
2018-03-25T09:03:53.470Z,8.00
2018-03-25T09:06:21.952Z,8.10
2018-03-25T09:08:50.246Z,8.10
2018-03-25T09:11:18.552Z,8.20
2018-03-25T09:13:46.862Z,8.20
2018-03-25T09:16:15.358Z,8.30
2018-03-25T09:18:43.755Z,8.30
2018-03-25T09:21:12.273Z,8.40
2018-03-25T09:23:41.612Z,8.40
2018-03-25T09:26:10.032Z,8.40
2018-03-25T09:28:38.415Z,8.50
2018-03-25T09:31:06.713Z,8.50
2018-03-25T09:33:35.920Z,8.70
2018-03-25T09:36:07.881Z,8.60
2018-03-25T09:38:36.975Z,8.80
2018-03-25T09:41:06.172Z,8.80
2018-03-25T09:43:35.239Z,8.90
2018-03-25T09:46:03.558Z,8.80
2018-03-25T09:48:31.987Z,8.90
2018-03-25T09:51:00.323Z,8.90
2018-03-25T09:53:28.739Z,9.00
2018-03-25T09:55:57.114Z,9.00
2018-03-25T09:58:26.307Z,9.20
2018-03-25T10:01:00.182Z,9.20
2018-03-25T10:03:32.316Z,9.30
2018-03-25T10:06:00.664Z,9.30
2018-03-25T10:08:29.059Z,9.40
2018-03-25T10:10:57.420Z,9.40
2018-03-25T10:13:26.133Z,9.50
2018-03-25T10:15:54.599Z,9.50
2018-03-25T10:18:23.907Z,9.50
2018-03-25T10:20:52.211Z,9.50
2018-03-25T10:23:20.592Z,9.60
2018-03-25T10:25:48.938Z,9.70
2018-03-25T10:28:17.258Z,9.70
2018-03-25T10:30:45.563Z,9.80
2018-03-25T10:33:13.920Z,9.90
2018-03-25T10:35:42.229Z,9.90
2018-03-25T10:38:13.559Z,10.10
2018-03-25T10:40:42.727Z,10.30
2018-03-25T10:43:11.050Z,10.30
2018-03-25T10:45:39.353Z,10.30
2018-03-25T10:48:09.399Z,10.40
2018-03-25T10:50:37.822Z,10.40
2018-03-25T10:53:06.887Z,10.50
2018-03-25T10:55:35.195Z,10.50
2018-03-25T10:58:04.601Z,10.70
2018-03-25T11:00:32.930Z,10.60
2018-03-25T11:03:01.352Z,10.70
2018-03-25T11:05:29.791Z,10.80
2018-03-25T11:07:58.097Z,10.90
2018-03-25T11:10:26.483Z,11.00
2018-03-25T11:12:54.794Z,11.00
2018-03-25T11:15:23.099Z,11.00
2018-03-25T11:17:51.426Z,11.00
2018-03-25T11:20:19.696Z,11.10
2018-03-25T11:22:48.796Z,11.30
2018-03-25T11:25:17.116Z,11.30
2018-03-25T11:27:45.408Z,11.30
2018-03-25T11:30:13.730Z,11.40
2018-03-25T11:32:42.798Z,11.50
2018-03-25T11:35:11.145Z,11.50
2018-03-25T11:37:39.450Z,11.70
2018-03-25T11:40:07.733Z,12.10
2018-03-25T11:42:36.059Z,12.70
2018-03-25T11:45:04.363Z,13.60
2018-03-25T11:47:33.106Z,14.50
2018-03-25T11:50:01.703Z,15.20
2018-03-25T11:52:30.764Z,16.60
2018-03-25T11:54:59.099Z,16.60
2018-03-25T11:57:27.651Z,17.20
2018-03-25T11:59:56.852Z,18.40
2018-03-25T12:02:25.274Z,18.40
2018-03-25T12:04:53.728Z,19.00
2018-03-25T12:07:22.033Z,19.60
2018-03-25T12:09:50.375Z,20.30
2018-03-25T12:12:18.696Z,20.90
2018-03-25T12:14:47.038Z,21.40
2018-03-25T12:17:16.170Z,22.20
2018-03-25T12:19:44.638Z,22.10
2018-03-25T12:22:13.791Z,22.60
2018-03-25T12:24:45.842Z,23.00
2018-03-25T12:27:14.138Z,23.20
2018-03-25T12:29:42.766Z,23.30
2018-03-25T12:32:11.267Z,23.30
2018-03-25T12:34:39.584Z,23.40
2018-03-25T12:37:07.946Z,23.50
2018-03-25T12:39:36.295Z,23.40
2018-03-25T12:42:04.574Z,23.50
2018-03-25T12:44:32.894Z,23.40
2018-03-25T12:47:01.212Z,23.30
2018-03-25T12:49:29.502Z,23.20
2018-03-25T12:51:57.851Z,23.20
2018-03-25T12:54:26.906Z,23.30
2018-03-25T12:56:55.208Z,23.30
2018-03-25T12:59:23.539Z,23.50
2018-03-25T13:01:51.845Z,23.70
2018-03-25T13:04:20.980Z,24.00
2018-03-25T13:06:50.075Z,24.50
2018-03-25T13:09:18.362Z,24.40
2018-03-25T13:11:47.442Z,24.50
2018-03-25T13:14:16.066Z,24.50
2018-03-25T13:16:44.414Z,24.60
2018-03-25T13:19:12.747Z,24.60
2018-03-25T13:21:41.011Z,24.90
2018-03-25T13:24:09.431Z,25.00
2018-03-25T13:26:37.727Z,25.20
2018-03-25T13:29:06.806Z,25.20
2018-03-25T13:31:35.125Z,25.20
2018-03-25T13:34:03.464Z,25.20
2018-03-25T13:36:31.815Z,25.00
2018-03-25T13:39:00.176Z,24.90
2018-03-25T13:41:28.520Z,24.80
2018-03-25T13:43:56.850Z,24.70
2018-03-25T13:46:25.134Z,24.70
2018-03-25T13:48:53.457Z,24.50
2018-03-25T13:51:22.593Z,24.10
2018-03-25T13:53:50.888Z,24.10
2018-03-25T13:56:19.938Z,23.90
2018-03-25T13:58:48.995Z,23.90
2018-03-25T14:01:17.312Z,23.80
2018-03-25T14:03:45.630Z,24.00
2018-03-25T14:06:13.931Z,23.90
2018-03-25T14:08:42.343Z,23.80
2018-03-25T14:11:13.350Z,23.90
2018-03-25T14:13:41.678Z,24.00
2018-03-25T14:16:10.820Z,23.80
2018-03-25T14:18:39.126Z,23.80
2018-03-25T14:21:08.191Z,23.80
2018-03-25T14:23:36.533Z,23.80
2018-03-25T14:26:04.850Z,23.80
2018-03-25T14:28:33.208Z,23.70
2018-03-25T14:31:01.534Z,23.60
2018-03-25T14:33:30.640Z,23.40
2018-03-25T14:35:58.995Z,23.30
2018-03-25T14:38:27.295Z,23.10
2018-03-25T14:41:18.796Z,23.10
2018-03-25T14:43:47.094Z,22.90
2018-03-25T14:46:16.371Z,22.90
2018-03-25T14:48:44.778Z,22.30
2018-03-25T14:51:13.078Z,21.40
2018-03-25T14:53:42.162Z,19.40
2018-03-25T14:56:11.226Z,18.50
2018-03-25T14:58:39.844Z,18.50
2018-03-25T15:01:08.949Z,17.00
2018-03-25T15:03:38.008Z,16.50
2018-03-25T15:06:06.340Z,16.40
2018-03-25T15:08:34.648Z,16.10
2018-03-25T15:11:02.988Z,15.80
2018-03-25T15:13:31.455Z,15.50
2018-03-25T15:16:00.541Z,14.90
2018-03-25T15:18:28.814Z,14.80
2018-03-25T15:20:57.138Z,14.60
2018-03-25T15:23:25.484Z,14.40
2018-03-25T15:25:53.849Z,14.30
2018-03-25T15:28:22.250Z,14.10
2018-03-25T15:30:51.363Z,13.70
2018-03-25T15:33:19.658Z,13.70
2018-03-25T15:35:47.959Z,13.60
2018-03-25T15:38:16.345Z,13.50
2018-03-25T15:40:44.612Z,13.30
2018-03-25T15:43:12.900Z,13.20
2018-03-25T15:45:41.244Z,13.10
2018-03-25T15:48:10.299Z,13.00
2018-03-25T15:50:38.629Z,13.00
2018-03-25T15:53:07.008Z,12.90
2018-03-25T15:55:35.349Z,12.90
2018-03-25T15:58:03.707Z,12.80
2018-03-25T16:00:31.982Z,12.70
2018-03-25T16:03:00.614Z,12.60
2018-03-25T16:05:28.919Z,12.50
2018-03-25T16:07:57.216Z,12.40
2018-03-25T16:10:25.540Z,12.60
2018-03-25T16:12:53.840Z,13.00
2018-03-25T16:15:22.170Z,13.30
2018-03-25T16:17:50.616Z,13.60
2018-03-25T16:20:19.010Z,13.80
2018-03-25T16:22:48.118Z,13.90
2018-03-25T16:25:16.412Z,13.90
2018-03-25T16:27:45.062Z,14.00
2018-03-25T16:30:13.368Z,14.00
2018-03-25T16:32:41.670Z,13.90
2018-03-25T16:35:10.770Z,13.60
2018-03-25T16:37:39.828Z,13.40
2018-03-25T16:40:08.185Z,13.30
2018-03-25T16:42:36.438Z,13.10
2018-03-25T16:45:04.723Z,12.80
2018-03-25T16:47:33.043Z,12.70
2018-03-25T16:50:01.344Z,12.60
2018-03-25T16:52:30.483Z,12.30
2018-03-25T16:54:58.813Z,12.20
2018-03-25T16:57:27.774Z,12.10
2018-03-25T16:59:56.155Z,11.90
2018-03-25T17:02:27.864Z,11.70
2018-03-25T17:04:57.910Z,11.30
2018-03-25T17:07:26.224Z,11.30
2018-03-25T17:09:54.519Z,11.10
2018-03-25T17:12:22.847Z,10.90
2018-03-25T17:14:51.928Z,10.50
2018-03-25T17:17:20.287Z,10.50
2018-03-25T17:19:49.368Z,10.20
2018-03-25T17:22:18.455Z,10.10
2018-03-25T17:24:46.767Z,10.10
2018-03-25T17:27:15.843Z,9.90
2018-03-25T17:29:44.220Z,9.80
2018-03-25T17:32:12.490Z,9.80
2018-03-25T17:34:40.858Z,9.70
2018-03-25T17:37:09.170Z,9.60
2018-03-25T17:39:37.449Z,9.50
2018-03-25T17:42:06.611Z,9.40
2018-03-25T17:44:35.249Z,9.30
2018-03-25T17:47:03.595Z,9.30
2018-03-25T17:49:31.946Z,9.20
2018-03-25T17:52:00.238Z,9.10
2018-03-25T17:54:29.459Z,9.10
2018-03-25T17:56:57.816Z,9.00
2018-03-25T17:59:26.122Z,8.90
2018-03-25T18:01:54.440Z,8.80
2018-03-25T18:04:22.772Z,8.80
2018-03-25T18:06:51.123Z,8.80
2018-03-25T18:09:21.017Z,8.70
2018-03-25T18:11:49.488Z,8.70
2018-03-25T18:14:17.800Z,8.60
2018-03-25T18:16:47.097Z,8.50
2018-03-25T18:19:17.280Z,8.50
2018-03-25T18:21:46.087Z,8.50
2018-03-25T18:24:15.461Z,8.40
2018-03-25T18:26:43.831Z,8.30
2018-03-25T18:29:12.113Z,8.30
2018-03-25T18:31:40.754Z,8.30
2018-03-25T18:34:09.036Z,8.30
2018-03-25T18:36:37.335Z,8.20
2018-03-25T18:39:05.740Z,8.20
2018-03-25T18:41:34.027Z,8.10
2018-03-25T18:44:03.166Z,8.10
2018-03-25T18:46:32.004Z,8.00
2018-03-25T18:49:00.311Z,8.00
2018-03-25T18:51:28.684Z,7.90
2018-03-25T18:53:57.131Z,7.90
2018-03-25T18:56:25.673Z,7.90
2018-03-25T18:58:54.126Z,7.90
2018-03-25T19:01:22.457Z,7.80
2018-03-25T19:03:50.780Z,7.80
2018-03-25T19:06:19.855Z,7.70
2018-03-25T19:08:48.414Z,7.70
2018-03-25T19:11:16.812Z,7.70
2018-03-25T19:13:45.311Z,7.60
2018-03-25T19:16:13.884Z,7.60
2018-03-25T19:18:42.378Z,7.60
2018-03-25T19:21:10.771Z,7.60
2018-03-25T19:23:39.879Z,7.50
2018-03-25T19:26:08.301Z,7.50
2018-03-25T19:28:36.792Z,7.50
2018-03-25T19:31:05.999Z,7.40
2018-03-25T19:33:34.363Z,7.40
2018-03-25T19:36:02.806Z,7.40
2018-03-25T19:38:31.219Z,7.40
2018-03-25T19:40:59.555Z,7.40
2018-03-25T19:43:28.633Z,7.40
2018-03-25T19:45:57.051Z,7.30
2018-03-25T19:48:26.935Z,7.30
2018-03-25T19:50:57.315Z,7.30
2018-03-25T19:53:25.776Z,7.30
2018-03-25T19:55:54.175Z,7.20
2018-03-25T19:58:22.704Z,7.20
2018-03-25T20:00:51.078Z,7.20
2018-03-25T20:03:20.153Z,7.10
2018-03-25T20:05:49.221Z,7.10
2018-03-25T20:08:18.742Z,7.00
2018-03-25T20:10:47.847Z,7.00
2018-03-25T20:13:16.143Z,7.00
2018-03-25T20:15:44.496Z,6.90
2018-03-25T20:18:12.831Z,7.00
2018-03-25T20:20:42.188Z,6.90
2018-03-25T20:23:10.654Z,6.90
2018-03-25T20:25:38.982Z,6.90
2018-03-25T20:28:08.130Z,6.80
2018-03-25T20:30:37.202Z,6.80
2018-03-25T20:33:05.587Z,6.80
2018-03-25T20:35:34.021Z,6.80
2018-03-25T20:38:03.075Z,6.70
2018-03-25T20:40:31.360Z,6.70
2018-03-25T20:42:59.681Z,6.70
2018-03-25T20:45:27.962Z,6.70
2018-03-25T20:47:56.988Z,6.70
2018-03-25T20:50:25.275Z,6.60
2018-03-25T20:52:54.355Z,6.60
2018-03-25T20:55:22.718Z,6.60
2018-03-25T20:57:51.820Z,6.50
2018-03-25T21:00:20.181Z,6.50
2018-03-25T21:02:49.341Z,6.50
2018-03-25T21:05:17.633Z,6.50
2018-03-25T21:07:45.974Z,6.40
2018-03-25T21:10:14.307Z,6.40
2018-03-25T21:12:43.060Z,6.40
2018-03-25T21:15:11.379Z,6.40
2018-03-25T21:17:39.701Z,6.40
2018-03-25T21:20:08.005Z,6.30
2018-03-25T21:22:36.388Z,6.30
2018-03-25T21:25:04.665Z,6.30
2018-03-25T21:27:32.961Z,6.30
2018-03-25T21:30:01.299Z,6.30
2018-03-25T21:32:29.601Z,6.20
2018-03-25T21:34:57.967Z,6.20
2018-03-25T21:37:26.313Z,6.10
2018-03-25T21:39:54.630Z,6.00
2018-03-25T21:42:23.133Z,5.90
2018-03-25T21:44:51.441Z,5.90
2018-03-25T21:47:20.968Z,5.80
2018-03-25T21:49:50.784Z,5.60
2018-03-25T21:52:19.351Z,5.60
2018-03-25T21:54:47.632Z,5.60
2018-03-25T21:57:17.558Z,5.50
2018-03-25T21:59:46.652Z,5.40
2018-03-25T22:02:15.037Z,5.30
2018-03-25T22:04:43.334Z,5.30
2018-03-25T22:07:11.969Z,5.20
2018-03-25T22:09:41.085Z,5.30
2018-03-25T22:12:10.182Z,4.90
2018-03-25T22:14:38.802Z,4.90
2018-03-25T22:17:07.095Z,4.90
2018-03-25T22:19:35.382Z,4.80
2018-03-25T22:22:03.776Z,4.70
2018-03-25T22:24:32.179Z,4.70
2018-03-25T22:27:00.501Z,4.60
2018-03-25T22:29:28.794Z,4.60
2018-03-25T22:31:57.105Z,4.50
2018-03-25T22:34:25.603Z,4.40
2018-03-25T22:36:54.768Z,4.30
2018-03-25T22:39:23.108Z,4.30
2018-03-25T22:41:51.412Z,4.30
2018-03-25T22:44:19.696Z,4.20
2018-03-25T22:46:48.639Z,4.10
2018-03-25T22:49:16.938Z,4.10
2018-03-25T22:51:45.276Z,4.10
2018-03-25T22:54:13.566Z,4.10
2018-03-25T22:56:42.660Z,4.00
2018-03-25T22:59:11.750Z,4.00
2018-03-25T23:01:40.035Z,3.90
2018-03-25T23:04:09.143Z,3.90
2018-03-25T23:06:38.196Z,3.90
2018-03-25T23:09:06.483Z,3.90
2018-03-25T23:11:34.798Z,3.90
2018-03-25T23:14:03.078Z,3.90
2018-03-25T23:16:31.411Z,3.90
2018-03-25T23:18:59.719Z,3.90
2018-03-25T23:21:28.056Z,3.90
2018-03-25T23:23:56.385Z,3.90
2018-03-25T23:26:25.426Z,3.90
2018-03-25T23:28:53.758Z,3.90
2018-03-25T23:31:22.806Z,3.90
2018-03-25T23:33:51.174Z,3.90
2018-03-25T23:36:19.487Z,4.00
2018-03-25T23:38:47.792Z,4.00
2018-03-25T23:41:16.920Z,4.10
2018-03-25T23:43:45.189Z,4.00
2018-03-25T23:46:13.463Z,4.10
2018-03-25T23:48:41.778Z,4.10
2018-03-25T23:51:10.055Z,4.20
2018-03-25T23:53:38.337Z,4.20
2018-03-25T23:56:06.634Z,4.30
2018-03-25T23:58:35.030Z,4.40
